Time;durP1;ratioP1;P1;durP2;ratioP2;P2;SDS_P1;SDS_P2;PMS_P1;PMS_P2;Temp;Humidity;BMP_temperature;BMP_pressure;BME280_temperature;BME280_humidity;BME280_pressure;Samples;Min_cycle;Max_cycle;Signal;HPM_P1;HPM_P2
2022/04/12 00:00:50;;;;;;;8.70;6.03;;;9.70;99.90;;;;;;5121012;28;20527;-59
2022/04/12 00:03:17;;;;;;;10.00;6.20;;;9.70;99.90;;;;;;5121016;28;20955;-58
2022/04/12 00:05:46;;;;;;;7.53;6.40;;;9.70;99.90;;;;;;5120619;28;20459;-59
2022/04/12 00:08:13;;;;;;;7.93;6.30;;;9.70;99.90;;;;;;5120572;28;20460;-59
2022/04/12 00:10:40;;;;;;;9.50;5.73;;;9.70;99.90;;;;;;5107683;28;20464;-59
2022/04/12 00:13:09;;;;;;;6.27;5.67;;;9.70;99.90;;;;;;5099196;28;20460;-59
2022/04/12 00:15:41;;;;;;;6.37;5.27;;;9.70;99.90;;;;;;5099431;28;20551;-59
2022/04/12 00:20:54;;;;;;;8.27;5.57;;;9.70;99.90;;;;;;5109602;28;20765;-59
2022/04/12 00:23:21;;;;;;;6.70;6.00;;;9.60;99.90;;;;;;5120727;28;20455;-59
2022/04/12 00:25:49;;;;;;;6.40;5.80;;;9.60;99.90;;;;;;5105848;28;20981;-58
2022/04/12 00:28:20;;;;;;;7.10;6.10;;;9.60;99.90;;;;;;5099927;28;20456;-58
2022/04/12 00:30:52;;;;;;;7.13;6.40;;;9.50;99.90;;;;;;5104269;28;20833;-59
2022/04/12 00:33:21;;;;;;;6.50;5.87;;;9.50;99.90;;;;;;5119033;28;20466;-59
2022/04/12 00:35:53;;;;;;;9.43;6.77;;;9.50;99.90;;;;;;5119929;28;20467;-57
2022/04/12 00:38:23;;;;;;;7.50;5.60;;;9.50;99.90;;;;;;5120404;28;20958;-58
2022/04/12 00:40:51;;;;;;;7.33;5.43;;;9.50;99.90;;;;;;5118270;28;20499;-58
2022/04/12 00:43:21;;;;;;;8.17;5.90;;;9.60;99.90;;;;;;5099561;28;20464;-59
2022/04/12 00:45:51;;;;;;;10.87;7.10;;;9.60;99.90;;;;;;5099574;28;20460;-59
2022/04/12 00:48:23;;;;;;;6.70;6.00;;;9.60;99.90;;;;;;5099530;28;20872;-59
2022/04/12 00:50:55;;;;;;;7.93;6.30;;;9.70;99.90;;;;;;5099117;28;20467;-59
2022/04/12 00:53:22;;;;;;;8.27;6.43;;;9.60;99.90;;;;;;5116624;28;20542;-59
2022/04/12 00:55:50;;;;;;;6.53;5.67;;;9.60;99.90;;;;;;5118452;28;20972;-59
2022/04/12 00:58:19;;;;;;;5.50;5.00;;;9.60;99.90;;;;;;5118162;28;20959;-59
2022/04/12 01:00:50;;;;;;;9.70;6.30;;;9.70;99.90;;;;;;5118872;28;20471;-59
2022/04/12 01:03:17;;;;;;;6.37;4.93;;;9.70;99.90;;;;;;5117386;28;20466;-58
2022/04/12 01:05:47;;;;;;;6.03;5.43;;;9.70;99.90;;;;;;5117955;28;20880;-59
2022/04/12 01:08:19;;;;;;;9.00;6.27;;;9.60;99.90;;;;;;5107454;28;20456;-59
2022/04/12 01:10:54;;;;;;;13.60;8.57;;;9.70;99.90;;;;;;5099404;28;20460;-59
2022/04/12 01:13:26;;;;;;;7.17;5.73;;;9.60;99.90;;;;;;5110401;28;20459;-59
2022/04/12 01:15:56;;;;;;;7.50;5.77;;;9.60;99.90;;;;;;5119019;28;20463;-59
2022/04/12 01:18:23;;;;;;;8.13;6.17;;;9.60;99.90;;;;;;5118252;28;20484;-59
2022/04/12 01:20:53;;;;;;;13.50;7.73;;;9.60;99.90;;;;;;5119501;28;20459;-58
2022/04/12 01:23:32;;;;;;;7.90;5.87;;;9.60;99.90;;;;;;5118199;28;20459;-58
2022/04/12 01:26:05;;;;;;;6.80;5.70;;;9.60;99.90;;;;;;5119305;28;20533;-59
2022/04/12 01:28:34;;;;;;;7.43;5.80;;;9.60;99.90;;;;;;5118726;28;20462;-59
2022/04/12 01:31:06;;;;;;;7.57;5.37;;;9.70;99.90;;;;;;5118591;28;20459;-58
2022/04/12 01:33:33;;;;;;;7.80;6.23;;;9.80;99.90;;;;;;5112064;28;20468;-58
2022/04/12 01:36:04;;;;;;;6.63;5.70;;;9.80;99.90;;;;;;5097826;28;20471;-59
2022/04/12 01:38:31;;;;;;;14.27;8.53;;;9.70;99.90;;;;;;5097248;28;20857;-59
2022/04/12 01:40:58;;;;;;;8.00;6.00;;;9.70;99.90;;;;;;5098055;28;20465;-58
2022/04/12 01:43:26;;;;;;;8.93;5.93;;;9.70;99.90;;;;;;5098252;28;20529;-58
2022/04/12 01:45:57;;;;;;;7.60;5.90;;;9.70;99.90;;;;;;5098379;28;20517;-59
2022/04/12 01:48:28;;;;;;;6.60;5.30;;;9.70;99.90;;;;;;5098564;28;20877;-58
2022/04/12 01:50:55;;;;;;;6.47;5.87;;;9.70;99.90;;;;;;5098826;28;20457;-59
2022/04/12 01:53:24;;;;;;;12.23;5.60;;;9.70;99.90;;;;;;5098140;28;20468;-59
2022/04/12 01:55:51;;;;;;;8.93;6.13;;;9.70;99.90;;;;;;5098284;28;20881;-59
2022/04/12 01:58:20;;;;;;;5.30;4.80;;;9.70;99.90;;;;;;5106484;28;20487;-58
2022/04/12 02:00:48;;;;;;;5.80;4.90;;;9.80;99.90;;;;;;5118649;28;20456;-59
2022/04/12 02:03:20;;;;;;;5.57;4.97;;;9.90;99.90;;;;;;5118731;28;20459;-59
2022/04/12 02:05:47;;;;;;;7.90;5.70;;;9.90;99.90;;;;;;5118903;28;20514;-59
2022/04/12 02:08:16;;;;;;;5.27;4.77;;;10.00;99.90;;;;;;5118489;28;20460;-59
2022/04/12 02:10:46;;;;;;;5.77;5.03;;;10.00;99.90;;;;;;5117438;28;20783;-58
2022/04/12 02:13:13;;;;;;;5.80;5.00;;;10.00;99.90;;;;;;5118042;28;20459;-58
2022/04/12 02:15:40;;;;;;;5.07;4.57;;;10.00;99.90;;;;;;5117214;28;20980;-58
2022/04/12 02:18:12;;;;;;;5.50;4.60;;;9.90;99.90;;;;;;5118453;28;20772;-58
2022/04/12 02:20:42;;;;;;;11.20;5.37;;;10.00;99.90;;;;;;5118541;28;20520;-59
2022/04/12 02:23:09;;;;;;;7.00;5.93;;;10.00;99.90;;;;;;5118328;28;20461;-59
2022/04/12 02:25:38;;;;;;;7.60;5.60;;;10.10;99.90;;;;;;5117708;28;20903;-59
2022/04/12 02:28:05;;;;;;;5.97;5.03;;;10.10;99.90;;;;;;5118077;28;20956;-59
2022/04/12 02:30:35;;;;;;;6.07;5.47;;;10.10;99.90;;;;;;5117782;28;20452;-59
2022/04/12 02:33:02;;;;;;;6.27;4.90;;;10.20;99.90;;;;;;5118431;28;20516;-59
2022/04/12 02:35:33;;;;;;;5.90;5.00;;;10.10;99.90;;;;;;5117803;28;20460;-59
2022/04/12 02:38:00;;;;;;;6.13;4.93;;;10.10;99.90;;;;;;5116904;28;20455;-58
2022/04/12 02:40:29;;;;;;;8.03;4.83;;;10.10;99.90;;;;;;5117419;28;20852;-59
2022/04/12 02:42:55;;;;;;;7.40;5.37;;;10.10;99.90;;;;;;5118099;28;20456;-59
2022/04/12 02:45:23;;;;;;;5.83;5.23;;;10.10;99.90;;;;;;5118059;28;20434;-59
2022/04/12 02:47:50;;;;;;;6.33;4.80;;;10.20;99.90;;;;;;5117281;28;20521;-59
2022/04/12 02:50:17;;;;;;;8.37;5.40;;;10.20;99.90;;;;;;5117723;28;20455;-58
2022/04/12 02:52:54;;;;;;;6.67;5.10;;;10.20;99.90;;;;;;5117270;28;20498;-58
2022/04/12 02:55:21;;;;;;;9.43;5.50;;;10.30;99.90;;;;;;5117484;28;20463;-58
2022/04/12 02:57:49;;;;;;;5.43;4.60;;;10.30;99.90;;;;;;5116426;28;20495;-59
2022/04/12 03:00:17;;;;;;;7.80;5.90;;;10.30;99.90;;;;;;5117829;28;20491;-59
2022/04/12 03:02:44;;;;;;;5.47;4.67;;;10.40;99.90;;;;;;5117172;28;20562;-59
2022/04/12 03:05:11;;;;;;;6.03;5.00;;;10.40;99.90;;;;;;5117259;28;20459;-58
2022/04/12 03:07:38;;;;;;;6.40;4.93;;;10.40;99.90;;;;;;5112625;28;20488;-58
2022/04/12 03:10:07;;;;;;;6.07;5.30;;;10.40;99.90;;;;;;5097652;28;20517;-58
2022/04/12 03:12:38;;;;;;;6.90;5.57;;;10.50;99.90;;;;;;5096893;28;20525;-59
2022/04/12 03:15:08;;;;;;;6.17;5.07;;;10.50;99.90;;;;;;5097374;28;20577;-59
2022/04/12 03:17:35;;;;;;;7.20;5.33;;;10.50;99.90;;;;;;5096574;28;20479;-58
2022/04/12 03:20:02;;;;;;;7.47;5.70;;;10.50;99.90;;;;;;5077073;28;20586;-58
2022/04/12 03:22:32;;;;;;;6.10;5.50;;;10.50;99.90;;;;;;5085227;28;20485;-59
2022/04/12 03:25:02;;;;;;;6.47;5.87;;;10.40;99.90;;;;;;5101238;28;20521;-59
2022/04/12 03:27:36;;;;;;;10.17;5.50;;;10.40;99.90;;;;;;5100980;28;20460;-59
2022/04/12 03:30:11;;;;;;;7.73;5.47;;;10.40;99.90;;;;;;5117328;28;20455;-58
2022/04/12 03:32:39;;;;;;;9.00;5.87;;;10.40;99.90;;;;;;5120705;28;20550;-59
2022/04/12 03:35:10;;;;;;;6.27;5.43;;;10.40;99.90;;;;;;5121357;28;20516;-57
2022/04/12 03:37:37;;;;;;;11.93;6.33;;;10.30;99.90;;;;;;5120997;28;20741;-59
2022/04/12 03:40:06;;;;;;;6.20;5.00;;;10.40;99.90;;;;;;5106518;28;20487;-59
2022/04/12 03:42:40;;;;;;;5.80;5.00;;;10.40;99.90;;;;;;5100559;28;20468;-58
2022/04/12 03:45:11;;;;;;;6.13;4.97;;;10.40;99.90;;;;;;5100434;28;20503;-59
2022/04/12 03:47:39;;;;;;;6.70;5.70;;;10.40;99.90;;;;;;5100444;28;20952;-59
2022/04/12 03:50:07;;;;;;;7.03;5.90;;;10.40;99.90;;;;;;5109804;28;20458;-59
2022/04/12 03:52:40;;;;;;;7.40;5.70;;;10.40;99.90;;;;;;5121236;28;20463;-59
2022/04/12 03:55:30;;;;;;;5.97;5.27;;;10.40;99.90;;;;;;5120518;28;20489;-58
2022/04/12 03:58:02;;;;;;;8.10;5.77;;;10.50;99.90;;;;;;5120203;28;20491;-59
2022/04/12 04:00:29;;;;;;;6.17;4.60;;;10.40;99.90;;;;;;5111301;28;20488;-58
2022/04/12 04:02:57;;;;;;;8.20;5.30;;;10.40;99.90;;;;;;5100088;28;20893;-59
2022/04/12 04:05:28;;;;;;;6.77;5.07;;;10.40;99.90;;;;;;5099432;28;20585;-58
2022/04/12 04:07:55;;;;;;;5.50;5.00;;;10.50;99.90;;;;;;5100312;28;20901;-59
2022/04/12 04:10:22;;;;;;;6.70;5.20;;;10.50;99.90;;;;;;5104145;28;20520;-58
2022/04/12 04:12:49;;;;;;;7.77;5.40;;;10.50;99.90;;;;;;5121113;28;20528;-58
2022/04/12 04:15:26;;;;;;;7.43;5.97;;;10.40;99.90;;;;;;5120215;28;20776;-59
2022/04/12 04:17:53;;;;;;;7.10;5.43;;;10.40;99.90;;;;;;5120657;28;20553;-59
2022/04/12 04:20:24;;;;;;;5.60;4.70;;;10.40;99.90;;;;;;5119613;28;20792;-59
2022/04/12 04:22:56;;;;;;;9.83;5.80;;;10.30;99.90;;;;;;5100140;28;20555;-59
2022/04/12 04:25:28;;;;;;;6.03;5.40;;;10.40;99.90;;;;;;5099602;28;20572;-58
2022/04/12 04:27:57;;;;;;;6.13;5.53;;;10.30;99.90;;;;;;5099871;28;20463;-59
2022/04/12 04:30:26;;;;;;;6.80;5.40;;;10.30;99.90;;;;;;5100180;28;20945;-59
2022/04/12 04:32:54;;;;;;;6.80;4.87;;;10.30;99.90;;;;;;5114575;28;20491;-56
2022/04/12 04:35:27;;;;;;;5.83;5.23;;;10.20;99.90;;;;;;5119253;28;20745;-58
2022/04/12 04:37:56;;;;;;;6.13;5.20;;;10.20;99.90;;;;;;5098960;28;20461;-59
2022/04/12 04:40:26;;;;;;;6.10;5.00;;;10.20;99.90;;;;;;5099630;28;20524;-58
2022/04/12 04:42:55;;;;;;;5.90;5.07;;;10.30;99.90;;;;;;5100135;28;20871;-58
2022/04/12 04:45:24;;;;;;;6.60;5.53;;;10.20;99.90;;;;;;5099563;28;20503;-58
2022/04/12 04:47:54;;;;;;;6.43;5.03;;;10.20;99.90;;;;;;5117152;28;20474;-59
2022/04/12 04:50:30;;;;;;;4.93;4.47;;;10.20;99.90;;;;;;5120038;28;20456;-59
2022/04/12 04:53:02;;;;;;;5.50;4.70;;;10.10;99.90;;;;;;5111076;28;20830;-59
2022/04/12 04:55:29;;;;;;;7.93;4.77;;;10.10;99.90;;;;;;5104969;28;20463;-59
2022/04/12 04:57:57;;;;;;;6.60;6.00;;;10.10;99.90;;;;;;5112674;28;20506;-59
2022/04/12 05:00:31;;;;;;;5.30;4.50;;;10.00;99.90;;;;;;5107736;28;20519;-59
2022/04/12 05:03:00;;;;;;;5.60;5.10;;;10.00;99.90;;;;;;5105677;28;20464;-58
2022/04/12 05:05:30;;;;;;;5.83;5.23;;;9.90;99.90;;;;;;5104142;28;20911;-58
2022/04/12 05:07:58;;;;;;;7.67;5.13;;;9.90;99.90;;;;;;5106036;28;20534;-59
2022/04/12 05:10:28;;;;;;;6.00;5.27;;;9.80;99.90;;;;;;5107609;28;20464;-59
2022/04/12 05:12:59;;;;;;;6.00;4.47;;;9.80;99.90;;;;;;5105521;28;20460;-59
2022/04/12 05:15:28;;;;;;;6.40;4.67;;;9.80;99.90;;;;;;5105463;28;20528;-59
2022/04/12 05:17:56;;;;;;;5.13;4.47;;;9.80;99.90;;;;;;5109552;28;20471;-59
2022/04/12 05:20:28;;;;;;;5.57;4.20;;;9.80;99.90;;;;;;5104970;28;20774;-59
2022/04/12 05:22:55;;;;;;;4.93;4.27;;;9.90;99.90;;;;;;5109848;28;20797;-59
2022/04/12 05:25:27;;;;;;;4.73;4.33;;;9.80;99.90;;;;;;5108441;28;20456;-59
2022/04/12 05:27:54;;;;;;;6.87;4.07;;;9.90;99.90;;;;;;5109420;28;20465;-59
2022/04/12 05:30:22;;;;;;;4.20;3.90;;;9.90;99.90;;;;;;5106200;28;20444;-59
2022/04/12 05:32:49;;;;;;;6.13;4.80;;;9.90;99.90;;;;;;5106162;28;20471;-59
2022/04/12 05:35:16;;;;;;;5.13;4.63;;;9.90;99.90;;;;;;5107271;28;20488;-58
2022/04/12 05:37:46;;;;;;;4.83;4.00;;;9.80;99.90;;;;;;5102207;28;20826;-59
2022/04/12 05:40:35;;;;;;;5.80;4.53;;;9.80;99.90;;;;;;5105649;28;20576;-60
2022/04/12 05:43:07;;;;;;;5.17;4.27;;;9.80;99.90;;;;;;5098212;28;20471;-59
2022/04/12 05:45:34;;;;;;;6.40;4.80;;;9.80;99.90;;;;;;5106967;28;20460;-59
2022/04/12 05:48:02;;;;;;;5.50;4.60;;;9.90;99.90;;;;;;5106303;28;20481;-59
2022/04/12 05:50:30;;;;;;;8.70;4.70;;;9.90;99.90;;;;;;5109370;28;20459;-59
2022/04/12 05:52:59;;;;;;;5.77;4.60;;;10.00;99.90;;;;;;5106252;28;21051;-58
2022/04/12 05:55:28;;;;;;;5.03;4.53;;;10.10;99.90;;;;;;5106551;28;20452;-59
2022/04/12 05:58:01;;;;;;;5.13;3.90;;;10.30;99.90;;;;;;5107906;27;20528;-60
2022/04/12 06:00:30;;;;;;;5.70;4.10;;;10.40;99.90;;;;;;5125228;27;20491;-59
2022/04/12 06:02:57;;;;;;;5.83;4.50;;;10.60;99.90;;;;;;5130017;27;20454;-59
2022/04/12 06:05:32;;;;;;;6.03;4.77;;;10.60;99.90;;;;;;5127380;27;20911;-59
2022/04/12 06:08:00;;;;;;;9.60;4.67;;;10.60;99.90;;;;;;5125528;27;20462;-59
2022/04/12 06:10:29;;;;;;;8.40;4.77;;;10.90;99.90;;;;;;5125145;27;20455;-59
2022/04/12 06:12:56;;;;;;;4.90;4.27;;;11.00;99.90;;;;;;5125744;27;20956;-59
2022/04/12 06:15:24;;;;;;;8.17;4.87;;;11.10;99.90;;;;;;5126457;27;20463;-59
2022/04/12 06:17:51;;;;;;;5.80;5.13;;;11.30;99.90;;;;;;5128365;27;20451;-59
2022/04/12 06:20:20;;;;;;;6.63;5.20;;;11.40;99.90;;;;;;5126040;27;20516;-59
2022/04/12 06:22:52;;;;;;;6.33;5.23;;;11.50;99.90;;;;;;5128329;27;20464;-60
2022/04/12 06:25:23;;;;;;;5.57;4.63;;;11.70;99.90;;;;;;5123582;27;20972;-59
2022/04/12 06:27:51;;;;;;;4.83;4.30;;;11.80;99.90;;;;;;5128195;27;20958;-60
2022/04/12 06:30:23;;;;;;;5.87;5.20;;;12.00;99.90;;;;;;5120942;27;20550;-59
2022/04/12 06:32:54;;;;;;;5.07;4.53;;;12.10;99.90;;;;;;5125100;27;20483;-60
2022/04/12 06:35:21;;;;;;;7.77;5.13;;;12.40;99.90;;;;;;5123128;27;20495;-60
2022/04/12 06:37:56;;;;;;;6.50;5.07;;;12.60;99.90;;;;;;5127499;27;20466;-60
2022/04/12 06:40:25;;;;;;;5.83;5.33;;;12.80;99.90;;;;;;5123330;27;20486;-60
2022/04/12 06:42:54;;;;;;;13.87;4.83;;;13.00;99.90;;;;;;5115839;28;20516;-60
2022/04/12 06:45:22;;;;;;;6.07;4.87;;;13.00;99.90;;;;;;5116685;28;20495;-59
2022/04/12 06:47:54;;;;;;;6.30;4.90;;;13.20;99.90;;;;;;5116845;28;20885;-59
2022/04/12 06:50:21;;;;;;;5.83;4.37;;;13.30;99.90;;;;;;5117571;28;20455;-60
2022/04/12 06:52:50;;;;;;;6.03;5.10;;;13.40;99.90;;;;;;5115775;28;20980;-60
2022/04/12 06:55:17;;;;;;;9.80;5.80;;;13.40;99.90;;;;;;5117838;28;20517;-59
2022/04/12 06:57:46;;;;;;;7.83;5.13;;;13.50;99.90;;;;;;5119880;28;20582;-59
2022/04/12 07:00:16;;;;;;;5.57;5.00;;;13.80;99.90;;;;;;5104656;28;20489;-60
2022/04/12 07:02:43;;;;;;;5.53;5.03;;;14.00;99.90;;;;;;5101183;28;21385;-59
2022/04/12 07:05:10;;;;;;;7.00;4.70;;;14.20;99.90;;;;;;5101150;28;20511;-60
2022/04/12 07:07:38;;;;;;;6.40;5.37;;;14.20;99.90;;;;;;5116636;28;20463;-60
2022/04/12 07:10:18;;;;;;;8.77;4.70;;;14.30;99.90;;;;;;5104007;28;20459;-60
2022/04/12 07:12:53;;;;;;;6.70;5.37;;;14.40;99.90;;;;;;5101681;28;20562;-60
2022/04/12 07:15:29;;;;;;;9.47;5.23;;;14.50;99.90;;;;;;5101923;28;20459;-60
2022/04/12 07:17:56;;;;;;;5.83;4.63;;;14.40;99.90;;;;;;5100634;28;20916;-59
2022/04/12 07:20:23;;;;;;;6.23;4.77;;;14.40;99.90;;;;;;5100543;28;20484;-60
2022/04/12 07:22:53;;;;;;;6.50;5.83;;;14.40;99.90;;;;;;5099252;28;20483;-60
2022/04/12 07:25:34;;;;;;;6.47;5.87;;;14.50;99.90;;;;;;5099089;28;20487;-60
2022/04/12 07:28:19;;;;;;;4.60;4.10;;;14.70;99.90;;;;;;5100980;28;20507;-60
2022/04/12 07:30:47;;;;;;;6.13;4.80;;;14.90;99.90;;;;;;5099276;28;20505;-60
2022/04/12 07:33:20;;;;;;;5.70;4.43;;;15.00;99.90;;;;;;5100432;28;20467;-60
2022/04/12 07:35:47;;;;;;;4.03;3.63;;;15.10;99.90;;;;;;5100340;28;20456;-59
2022/04/12 07:38:15;;;;;;;5.93;4.00;;;15.50;99.90;;;;;;5100059;28;20759;-60
2022/04/12 07:40:42;;;;;;;5.80;4.50;;;15.70;99.90;;;;;;5108870;28;20569;-60
2022/04/12 07:43:12;;;;;;;4.77;4.03;;;16.00;99.90;;;;;;5100598;28;20456;-60
2022/04/12 07:45:42;;;;;;;4.20;3.80;;;16.00;99.90;;;;;;5098782;28;20909;-60
2022/04/12 07:48:14;;;;;;;6.17;3.70;;;16.10;99.90;;;;;;5100095;28;20461;-61
2022/04/12 07:50:41;;;;;;;4.57;3.57;;;16.10;99.90;;;;;;5098716;28;20490;-60
2022/04/12 07:53:21;;;;;;;4.77;3.47;;;16.30;99.90;;;;;;5099097;28;20522;-59
2022/04/12 07:55:50;;;;;;;4.70;3.63;;;16.60;99.90;;;;;;5090305;28;20487;-61
2022/04/12 07:58:21;;;;;;;3.70;3.33;;;16.70;99.90;;;;;;5105875;28;20497;-60
2022/04/12 08:00:50;;;;;;;6.00;3.53;;;16.80;99.90;;;;;;5118581;28;20940;-60
2022/04/12 08:03:20;;;;;;;5.27;4.23;;;17.00;99.90;;;;;;5119858;28;20570;-59
2022/04/12 08:05:50;;;;;;;5.03;3.57;;;17.20;99.90;;;;;;5119305;28;20467;-59
2022/04/12 08:08:21;;;;;;;5.50;4.30;;;17.30;99.90;;;;;;5120378;28;20467;-60
2022/04/12 08:10:50;;;;;;;5.60;3.37;;;17.10;99.90;;;;;;5120349;28;20513;-60
2022/04/12 08:13:17;;;;;;;5.90;4.10;;;17.30;99.90;;;;;;5120151;28;20512;-58
2022/04/12 08:15:53;;;;;;;5.77;4.10;;;17.30;99.90;;;;;;5119744;28;20787;-60
2022/04/12 08:18:20;;;;;;;5.27;4.53;;;17.40;99.90;;;;;;5120896;28;20458;-59
2022/04/12 08:20:51;;;;;;;6.47;3.90;;;17.30;99.90;;;;;;5120017;28;20559;-60
2022/04/12 08:23:18;;;;;;;3.90;3.50;;;17.80;99.90;;;;;;5120160;28;20937;-61
2022/04/12 08:25:50;;;;;;;4.87;4.00;;;18.40;99.90;;;;;;5119520;28;20552;-61
2022/04/12 08:28:22;;;;;;;9.10;4.90;;;19.10;99.90;;;;;;5120115;28;20462;-60
2022/04/12 08:31:05;;;;;;;4.47;3.80;;;19.00;99.90;;;;;;5121047;28;20495;-60
2022/04/12 08:33:32;;;;;;;6.30;4.57;;;18.90;99.90;;;;;;5101502;28;20467;-60
2022/04/12 08:35:59;;;;;;;4.60;4.20;;;19.00;99.90;;;;;;5118547;28;20490;-59
2022/04/12 08:38:30;;;;;;;4.80;4.40;;;18.90;99.90;;;;;;5119329;28;20460;-61
2022/04/12 08:40:58;;;;;;;4.70;4.30;;;19.20;99.90;;;;;;5118628;28;20499;-61
2022/04/12 08:43:38;;;;;;;4.43;3.97;;;19.00;99.90;;;;;;5118704;28;20471;-59
2022/04/12 08:46:13;;;;;;;3.60;3.30;;;19.30;99.90;;;;;;5117687;28;20884;-61
2022/04/12 08:48:43;;;;;;;4.20;3.80;;;19.40;99.90;;;;;;5099272;28;20764;-61
2022/04/12 08:51:11;;;;;;;4.60;4.20;;;19.30;99.90;;;;;;5119566;27;20833;-60
2022/04/12 08:53:38;;;;;;;5.30;3.73;;;19.30;99.90;;;;;;5118880;28;20563;-60
2022/04/12 08:56:09;;;;;;;4.90;3.80;;;19.30;99.90;;;;;;5118159;28;20456;-59
2022/04/12 08:58:38;;;;;;;4.80;4.00;;;19.40;99.90;;;;;;5107928;28;20500;-59
2022/04/12 09:01:15;;;;;;;4.47;4.17;;;19.90;99.90;;;;;;5098484;28;20922;-61
2022/04/12 09:03:48;;;;;;;3.77;3.47;;;20.30;99.90;;;;;;5097949;28;20533;-59
2022/04/12 09:06:18;;;;;;;5.00;4.20;;;20.40;99.90;;;;;;5097922;28;20471;-61
2022/04/12 09:08:46;;;;;;;4.63;4.10;;;20.40;99.90;;;;;;5105583;28;20518;-60
2022/04/12 09:11:17;;;;;;;3.90;3.27;;;20.20;99.90;;;;;;5097497;28;20887;-62
2022/04/12 09:14:05;;;;;;;4.60;3.50;;;20.00;99.90;;;;;;5098569;28;20464;-59
2022/04/12 09:16:35;;;;;;;4.67;4.17;;;19.90;99.90;;;;;;5098432;28;20792;-59
2022/04/12 09:19:05;;;;;;;5.07;4.07;;;20.30;99.90;;;;;;5098996;28;20527;-61
2022/04/12 09:21:33;;;;;;;4.53;4.13;;;20.40;99.90;;;;;;5097615;28;20814;-59
2022/04/12 09:24:04;;;;;;;3.40;3.10;;;20.50;99.90;;;;;;5097992;28;20465;-61
2022/04/12 09:26:35;;;;;;;6.83;3.40;;;20.10;99.90;;;;;;5097873;28;20453;-59
2022/04/12 09:29:02;;;;;;;3.80;3.50;;;20.10;99.90;;;;;;5105991;28;20464;-60
2022/04/12 09:31:29;;;;;;;3.83;3.50;;;20.50;99.90;;;;;;5106634;28;20487;-61
2022/04/12 09:33:59;;;;;;;3.80;3.50;;;21.20;99.90;;;;;;5110294;28;20471;-61
2022/04/12 09:36:34;;;;;;;3.70;3.40;;;21.40;99.90;;;;;;5106943;28;20468;-61
2022/04/12 09:39:04;;;;;;;6.97;4.03;;;21.00;99.90;;;;;;5110829;28;20463;-61
2022/04/12 09:41:45;;;;;;;4.60;3.40;;;20.70;99.90;;;;;;5102083;28;20949;-61
2022/04/12 09:44:18;;;;;;;4.10;3.30;;;20.70;99.90;;;;;;5098051;28;20472;-60
2022/04/12 09:46:45;;;;;;;5.83;2.90;;;20.80;99.90;;;;;;5099143;28;20473;-59
2022/04/12 09:49:14;;;;;;;4.27;3.47;;;21.30;99.90;;;;;;5111763;28;20475;-59
2022/04/12 09:51:41;;;;;;;4.10;2.90;;;21.30;99.90;;;;;;5102931;28;20456;-61
2022/04/12 09:54:21;;;;;;;4.50;3.30;;;21.40;99.90;;;;;;5112567;28;20532;-59
2022/04/12 09:56:50;;;;;;;9.40;3.50;;;21.40;99.90;;;;;;5100623;28;20492;-60
2022/04/12 09:59:22;;;;;;;3.77;2.80;;;21.30;99.90;;;;;;5112542;28;20864;-61
2022/04/12 10:01:50;;;;;;;3.10;2.90;;;21.30;99.90;;;;;;5118495;28;20491;-61
2022/04/12 10:04:19;;;;;;;4.33;3.57;;;21.30;99.90;;;;;;5122933;27;20474;-61
2022/04/12 10:07:01;;;;;;;3.70;2.83;;;20.90;99.90;;;;;;5120129;28;20463;-61
2022/04/12 10:09:40;;;;;;;3.77;3.47;;;21.00;99.90;;;;;;5117144;28;20467;-59
2022/04/12 10:12:09;;;;;;;3.00;2.80;;;21.40;99.90;;;;;;5116632;28;20457;-61
2022/04/12 10:14:39;;;;;;;3.40;3.10;;;21.40;99.90;;;;;;5115707;27;20463;-61
2022/04/12 10:17:06;;;;;;;3.27;3.07;;;21.60;99.90;;;;;;5117328;28;20539;-61
2022/04/12 10:19:43;;;;;;;4.10;3.67;;;21.50;99.90;;;;;;5116735;28;20773;-61
2022/04/12 10:22:13;;;;;;;3.50;3.20;;;21.50;99.90;;;;;;5113324;28;20855;-61
2022/04/12 10:24:40;;;;;;;3.10;2.90;;;21.70;99.90;;;;;;5116859;28;20471;-60
2022/04/12 10:27:12;;;;;;;3.70;3.30;;;21.60;99.90;;;;;;5116810;28;20459;-59
2022/04/12 10:29:43;;;;;;;4.33;3.43;;;21.80;99.90;;;;;;5116532;28;20929;-61
2022/04/12 10:32:17;;;;;;;3.73;3.40;;;21.80;99.90;;;;;;5115341;28;20452;-61
2022/04/12 10:37:37;;;;;;;3.23;2.80;;;22.10;99.90;;;;;;5093903;27;20519;-60
2022/04/12 10:40:18;;;;;;;3.33;3.03;;;22.30;99.90;;;;;;5094268;28;20459;-62
2022/04/12 10:42:48;;;;;;;5.63;3.00;;;22.70;99.90;;;;;;5092613;28;20517;-62
2022/04/12 10:45:33;;;;;;;4.90;3.40;;;22.50;99.90;;;;;;5094521;28;20934;-60
2022/04/12 10:48:19;;;;;;;6.27;3.10;;;22.80;99.90;;;;;;5095027;28;20467;-62
2022/04/12 10:50:50;;;;;;;4.67;2.90;;;22.90;99.90;;;;;;5093616;28;20946;-61
2022/04/12 10:53:55;;;;;;;3.07;2.87;;;23.10;99.90;;;;;;5092732;28;20461;-61
2022/04/12 10:56:26;;;;;;;3.93;2.80;;;23.20;99.90;;;;;;5094532;28;20545;-62
2022/04/12 10:59:00;;;;;;;2.97;2.70;;;23.10;99.90;;;;;;5094085;28;20463;-62
2022/04/12 11:01:35;;;;;;;2.60;2.37;;;22.90;99.90;;;;;;5078638;28;20460;-62
2022/04/12 11:04:09;;;;;;;3.10;2.90;;;22.80;99.90;;;;;;5093994;28;20931;-61
2022/04/12 11:06:46;;;;;;;3.07;2.83;;;22.90;99.90;;;;;;5093925;28;20461;-62
2022/04/12 11:09:16;;;;;;;3.00;2.43;;;22.90;99.90;;;;;;5094292;28;20795;-60
2022/04/12 11:11:55;;;;;;;3.60;2.83;;;23.10;99.90;;;;;;5093184;28;20460;-62
2022/04/12 11:14:28;;;;;;;5.40;3.20;;;23.40;99.90;;;;;;5083227;28;20452;-62
2022/04/12 11:17:01;;;;;;;3.57;2.40;;;23.50;99.90;;;;;;5093430;28;20492;-61
2022/04/12 11:19:41;;;;;;;2.70;2.50;;;23.80;99.90;;;;;;5092670;28;20504;-62
2022/04/12 11:22:25;;;;;;;3.80;2.90;;;24.10;99.90;;;;;;5092974;28;20460;-60
2022/04/12 11:25:22;;;;;;;3.23;2.90;;;24.30;99.90;;;;;;5092929;28;20464;-61
2022/04/12 11:27:56;;;;;;;2.90;2.50;;;24.50;99.90;;;;;;5092809;28;20468;-62
2022/04/12 11:30:26;;;;;;;3.23;2.37;;;23.90;99.90;;;;;;5073021;28;20467;-61
2022/04/12 11:32:55;;;;;;;2.60;2.40;;;23.70;99.90;;;;;;5091214;28;20456;-62
2022/04/12 11:35:23;;;;;;;3.00;2.80;;;23.40;99.90;;;;;;5084305;28;20483;-62
2022/04/12 11:37:58;;;;;;;2.80;2.60;;;23.60;99.90;;;;;;5092592;28;20873;-60
2022/04/12 11:40:27;;;;;;;2.70;2.50;;;24.00;99.90;;;;;;5093196;28;20773;-61
2022/04/12 11:42:56;;;;;;;2.83;2.63;;;24.20;99.90;;;;;;5092574;28;20550;-61
2022/04/12 11:45:34;;;;;;;3.93;2.97;;;23.80;99.90;;;;;;5091046;28;20465;-61
2022/04/12 11:48:10;;;;;;;3.57;2.63;;;23.90;99.90;;;;;;5082824;28;20463;-61
2022/04/12 11:50:39;;;;;;;2.50;2.30;;;24.20;99.90;;;;;;5078696;28;20461;-61
2022/04/12 11:53:08;;;;;;;2.77;2.57;;;24.30;99.90;;;;;;5076125;28;20967;-62
2022/04/12 11:55:41;;;;;;;2.80;2.60;;;24.40;99.90;;;;;;5076439;28;20472;-61
2022/04/12 11:58:11;;;;;;;3.10;2.70;;;24.40;99.90;;;;;;5075526;28;20473;-61
2022/04/12 12:00:38;;;;;;;3.10;2.83;;;24.10;99.90;;;;;;5089123;28;20469;-61
2022/04/12 12:03:16;;;;;;;2.67;2.50;;;24.10;99.90;;;;;;5076265;28;20534;-60
2022/04/12 12:05:43;;;;;;;2.70;2.50;;;24.10;99.90;;;;;;5075730;28;20473;-60
2022/04/12 12:08:20;;;;;;;2.80;2.33;;;24.00;99.90;;;;;;5072850;28;20588;-60
2022/04/12 12:10:51;;;;;;;3.20;3.00;;;23.90;99.90;;;;;;5083616;28;20909;-61
2022/04/12 12:13:25;;;;;;;2.80;2.60;;;24.00;99.90;;;;;;5076760;28;20465;-60
2022/04/12 12:15:55;;;;;;;2.77;2.57;;;23.80;99.90;;;;;;5075864;28;20786;-61
2022/04/12 12:18:26;;;;;;;3.03;2.00;;;23.80;99.90;;;;;;5066122;28;20558;-61
2022/04/12 12:20:54;;;;;;;2.80;2.60;;;24.30;99.90;;;;;;5073063;28;20512;-61
2022/04/12 12:23:22;;;;;;;2.50;2.30;;;24.60;99.90;;;;;;5073538;28;20469;-61
2022/04/12 12:25:57;;;;;;;2.93;2.60;;;24.50;99.90;;;;;;5067185;28;20936;-60
2022/04/12 12:28:26;;;;;;;3.17;2.50;;;24.60;99.90;;;;;;5071146;28;20469;-61
2022/04/12 12:31:01;;;;;;;3.00;2.70;;;24.20;99.90;;;;;;5073762;28;20820;-61
2022/04/12 12:33:41;;;;;;;2.50;2.30;;;23.90;99.90;;;;;;5077480;28;20518;-61
2022/04/12 12:36:20;;;;;;;3.57;2.87;;;23.60;99.90;;;;;;5076338;28;20493;-60
2022/04/12 12:38:52;;;;;;;2.90;2.30;;;23.40;99.90;;;;;;5076004;28;20457;-61
2022/04/12 12:41:32;;;;;;;4.13;2.30;;;23.50;99.90;;;;;;5076771;28;20689;-60
2022/04/12 12:44:05;;;;;;;2.40;2.00;;;23.60;99.90;;;;;;5075916;28;20453;-60
2022/04/12 12:46:34;;;;;;;3.70;2.90;;;23.40;99.90;;;;;;5076795;28;20765;-61
2022/04/12 12:49:08;;;;;;;5.60;3.10;;;23.00;99.90;;;;;;5078458;28;20461;-61
2022/04/12 12:51:39;;;;;;;3.07;2.87;;;22.70;99.90;;;;;;5077407;28;20456;-61
2022/04/12 12:54:12;;;;;;;4.30;2.73;;;22.60;99.90;;;;;;5078579;28;20462;-60
2022/04/12 12:56:47;;;;;;;3.00;2.70;;;22.80;99.90;;;;;;5078240;28;20942;-61
2022/04/12 12:59:17;;;;;;;3.73;2.90;;;22.70;99.90;;;;;;5077345;28;20556;-60
2022/04/12 13:01:48;;;;;;;3.63;2.60;;;22.50;99.90;;;;;;5078292;28;20466;-61
2022/04/12 13:04:23;;;;;;;4.90;2.97;;;22.80;99.90;;;;;;5078748;28;20514;-60
2022/04/12 13:07:09;;;;;;;2.83;2.63;;;23.10;99.90;;;;;;5077881;28;20500;-60
2022/04/12 13:09:45;;;;;;;3.57;2.90;;;23.20;99.90;;;;;;5077905;28;20461;-59
2022/04/12 13:12:17;;;;;;;2.80;2.60;;;23.10;99.90;;;;;;5076400;28;20496;-60